Time;durP1;ratioP1;P1;durP2;ratioP2;P2;SDS_P1;SDS_P2;PMS_P1;PMS_P2;Temp;Humidity;BMP_temperature;BMP_pressure;BME280_temperature;BME280_humidity;BME280_pressure;Samples;Min_cycle;Max_cycle;Signal;HPM_P1;HPM_P2
2022/08/23 00:06:34;;;;;;;1.20;0.88;;;14.60;82.90;;;;;;20463192;29;20035;-62
2022/08/23 00:16:38;;;;;;;1.15;0.50;;;14.40;82.00;;;;;;20460065;28;20098;-61
2022/08/23 00:27:03;;;;;;;1.55;0.77;;;14.50;80.20;;;;;;20479435;29;20090;-61
2022/08/23 00:37:09;;;;;;;2.17;0.70;;;14.80;80.30;;;;;;20476191;29;20070;-63
2022/08/23 00:57:53;;;;;;;1.98;0.70;;;14.60;82.60;;;;;;20330530;29;20056;-61
2022/08/23 01:07:58;;;;;;;1.35;1.00;;;14.40;81.80;;;;;;20295846;29;20048;-61
2022/08/23 01:18:05;;;;;;;1.52;0.82;;;14.70;81.30;;;;;;20310689;29;20044;-61
2022/08/23 01:28:08;;;;;;;1.10;0.80;;;14.60;82.60;;;;;;20407984;29;20412;-62
2022/08/23 01:38:13;;;;;;;1.02;0.77;;;14.50;82.10;;;;;;20476324;29;20110;-62
2022/08/23 01:48:18;;;;;;;1.40;0.90;;;14.40;82.10;;;;;;20489930;29;20086;-60
2022/08/23 01:58:21;;;;;;;1.05;0.63;;;14.40;82.10;;;;;;20472623;29;20035;-59
2022/08/23 02:18:46;;;;;;;1.25;0.90;;;14.10;83.40;;;;;;20488428;29;20043;-59
2022/08/23 02:28:52;;;;;;;1.85;0.80;;;14.20;83.30;;;;;;20472424;29;20098;-59
2022/08/23 02:38:56;;;;;;;0.98;0.70;;;14.30;82.60;;;;;;20455427;28;20102;-55
2022/08/23 02:48:58;;;;;;;1.40;0.90;;;14.20;82.80;;;;;;20470809;29;20043;-56
2022/08/23 02:59:03;;;;;;;1.10;0.90;;;14.00;83.10;;;;;;20501991;29;20027;-58
2022/08/23 03:09:07;;;;;;;1.30;0.82;;;13.80;83.60;;;;;;20470823;29;20039;-58
2022/08/23 03:19:10;;;;;;;1.77;0.80;;;13.50;84.20;;;;;;20499928;29;20453;-66
2022/08/23 03:29:13;;;;;;;1.00;0.80;;;13.70;84.80;;;;;;20467734;29;20035;-48
2022/08/23 03:39:37;;;;;;;1.67;1.02;;;13.60;84.60;;;;;;20479592;29;20570;-49
2022/08/23 03:49:40;;;;;;;0.95;0.65;;;13.40;85.70;;;;;;20479719;28;20132;-48
2022/08/23 03:59:43;;;;;;;1.35;0.77;;;13.00;87.80;;;;;;20480747;29;20039;-62
2022/08/23 04:09:47;;;;;;;1.05;0.90;;;12.80;88.50;;;;;;20493263;29;20508;-49
2022/08/23 04:19:50;;;;;;;1.35;1.00;;;12.70;88.70;;;;;;20478090;28;20051;-50
2022/08/23 04:29:53;;;;;;;0.98;0.70;;;13.00;87.00;;;;;;20477875;29;20480;-48
2022/08/23 04:50:32;;;;;;;1.13;0.98;;;13.00;86.10;;;;;;20157425;29;20045;-50
2022/08/23 05:00:53;;;;;;;1.52;0.55;;;13.40;86.60;;;;;;20151841;29;20109;-62
2022/08/23 05:11:02;;;;;;;1.50;0.65;;;13.50;84.10;;;;;;20168893;29;20053;-49
2022/08/23 05:21:06;;;;;;;1.35;0.90;;;13.40;85.40;;;;;;20289911;29;20393;-61
2022/08/23 05:31:13;;;;;;;0.95;0.65;;;13.60;84.60;;;;;;20490822;28;20392;-61
2022/08/23 05:41:22;;;;;;;0.90;0.60;;;13.80;82.50;;;;;;20490109;28;20093;-47
2022/08/23 05:51:30;;;;;;;0.90;0.60;;;13.80;82.80;;;;;;20489426;29;20420;-49
2022/08/23 06:01:35;;;;;;;0.68;0.45;;;13.60;84.00;;;;;;20484017;28;20039;-49
2022/08/23 06:11:47;;;;;;;0.88;0.70;;;13.60;84.80;;;;;;20490782;28;20043;-53
2022/08/23 06:21:51;;;;;;;0.90;0.60;;;13.70;84.90;;;;;;20471555;29;20047;-62
2022/08/23 06:32:02;;;;;;;1.00;0.63;;;14.00;80.20;;;;;;20487582;29;20071;-46
2022/08/23 06:42:14;;;;;;;0.82;0.52;;;15.00;81.00;;;;;;20484910;29;20373;-49
2022/08/23 06:52:21;;;;;;;1.05;0.55;;;17.30;75.60;;;;;;20482418;29;20094;-46
2022/08/23 07:02:31;;;;;;;0.82;0.60;;;18.90;73.00;;;;;;20485698;29;20040;-63
2022/08/23 07:12:40;;;;;;;0.63;0.30;;;19.30;64.20;;;;;;20498106;28;20113;-63
2022/08/23 07:22:43;;;;;;;3.53;0.50;;;19.70;64.50;;;;;;20483295;28;20043;-50
2022/08/23 07:32:47;;;;;;;0.85;0.40;;;19.70;62.90;;;;;;20480056;29;20035;-49
2022/08/23 07:42:56;;;;;;;0.40;0.40;;;19.70;62.20;;;;;;20496221;29;20035;-51
2022/08/23 07:53:02;;;;;;;0.77;0.40;;;19.80;61.10;;;;;;20495763;29;20392;-50
2022/08/23 08:03:06;;;;;;;0.63;0.35;;;20.20;62.80;;;;;;20464885;29;20090;-51
2022/08/23 08:13:30;;;;;;;1.05;0.57;;;20.60;61.40;;;;;;20492776;28;20075;-47
2022/08/23 08:23:33;;;;;;;1.48;0.40;;;20.60;58.70;;;;;;20476661;29;20102;-61
2022/08/23 08:33:50;;;;;;;0.45;0.38;;;20.70;58.60;;;;;;20479220;28;20438;-47
2022/08/23 08:44:03;;;;;;;1.13;0.30;;;20.90;56.80;;;;;;20462597;29;20031;-63
2022/08/23 08:54:12;;;;;;;0.90;0.20;;;21.00;55.00;;;;;;20478212;29;20032;-51
2022/08/23 09:04:21;;;;;;;0.52;0.40;;;21.10;52.90;;;;;;20477455;29;20035;-63
2022/08/23 09:14:48;;;;;;;0.30;0.30;;;21.20;55.10;;;;;;20493061;28;20343;-48
2022/08/23 09:24:51;;;;;;;0.40;0.30;;;21.50;54.20;;;;;;20477376;29;20531;-63
2022/08/23 09:35:24;;;;;;;1.27;0.30;;;21.40;56.90;;;;;;20457810;29;20343;-51
2022/08/23 09:45:38;;;;;;;0.50;0.30;;;22.00;52.00;;;;;;20472572;28;20851;-50
2022/08/23 09:55:50;;;;;;;0.35;0.30;;;21.70;54.60;;;;;;20472466;29;20039;-50
2022/08/23 10:06:01;;;;;;;0.47;0.30;;;22.10;50.90;;;;;;20473799;29;20515;-51
2022/08/23 10:16:20;;;;;;;0.52;0.30;;;22.30;56.60;;;;;;20470398;28;20186;-61
2022/08/23 10:37:56;;;;;;;0.52;0.20;;;23.70;58.30;;;;;;20471321;29;20043;-48
2022/08/23 10:48:20;;;;;;;0.57;0.30;;;23.90;55.70;;;;;;20469643;29;20042;-63
2022/08/23 10:58:27;;;;;;;0.40;0.40;;;24.30;59.70;;;;;;20469411;28;20098;-62
2022/08/23 11:08:33;;;;;;;0.22;0.20;;;25.40;66.70;;;;;;20485480;29;20035;-51
2022/08/23 11:18:46;;;;;;;0.85;0.40;;;26.20;65.00;;;;;;20500740;29;20412;-63
2022/08/23 11:29:16;;;;;;;1.55;0.80;;;26.10;59.40;;;;;;20482704;29;20035;-46
2022/08/23 11:39:24;;;;;;;2.30;1.10;;;26.60;79.40;;;;;;20495446;28;20063;-66
2022/08/23 11:49:27;;;;;;;3.03;1.30;;;26.70;79.60;;;;;;20478639;28;20047;-64
2022/08/23 11:59:33;;;;;;;2.10;1.15;;;25.90;84.90;;;;;;20478198;28;20043;-51
2022/08/23 12:09:36;;;;;;;1.80;1.27;;;24.70;90.40;;;;;;20479526;28;20543;-52
2022/08/23 12:19:47;;;;;;;1.65;1.50;;;25.90;87.90;;;;;;20492173;29;20052;-65
2022/08/23 12:29:55;;;;;;;2.42;1.50;;;26.20;89.50;;;;;;20490450;29;20107;-49
2022/08/23 12:40:02;;;;;;;3.58;1.77;;;26.30;89.30;;;;;;20459892;29;20043;-66
2022/08/23 12:50:24;;;;;;;2.38;1.50;;;26.50;90.40;;;;;;20494339;29;20046;-51
2022/08/23 13:00:50;;;;;;;3.95;1.33;;;26.80;87.50;;;;;;20475254;29;20071;-48
2022/08/23 13:10:55;;;;;;;5.25;1.83;;;27.00;88.30;;;;;;20493591;29;20048;-50
2022/08/23 13:21:17;;;;;;;3.38;1.70;;;27.20;90.10;;;;;;20482425;28;20416;-64
2022/08/23 13:31:20;;;;;;;4.13;1.98;;;27.10;89.00;;;;;;20472785;29;20562;-51
2022/08/23 13:41:30;;;;;;;3.50;2.10;;;26.70;87.60;;;;;;20507391;29;20043;-66
2022/08/23 13:51:37;;;;;;;2.38;1.70;;;26.20;84.30;;;;;;20508742;28;20357;-49
2022/08/23 14:01:40;;;;;;;1.23;1.10;;;26.00;88.50;;;;;;20500371;28;20043;-51
2022/08/23 14:11:43;;;;;;;2.38;1.60;;;26.40;88.70;;;;;;20490807;29;20039;-66
2022/08/23 14:21:46;;;;;;;2.15;1.60;;;26.30;89.20;;;;;;20505643;29;20052;-60
2022/08/23 14:31:52;;;;;;;3.72;2.00;;;26.20;85.90;;;;;;20488168;28;20095;-54
2022/08/23 14:41:55;;;;;;;2.60;1.50;;;25.80;88.60;;;;;;20503570;29;20631;-53
2022/08/23 14:51:57;;;;;;;3.72;1.50;;;25.50;89.40;;;;;;20502512;29;20039;-65
2022/08/23 15:02:02;;;;;;;1.90;1.30;;;25.50;90.00;;;;;;20486666;29;20031;-64
2022/08/23 15:12:05;;;;;;;3.83;2.03;;;25.10;88.10;;;;;;20502888;29;20047;-64
2022/08/23 15:22:07;;;;;;;2.95;2.00;;;24.60;88.90;;;;;;20500194;29;20173;-55
2022/08/23 15:32:11;;;;;;;3.33;2.03;;;23.70;90.10;;;;;;20484041;29;20102;-61
2022/08/23 15:42:13;;;;;;;3.65;2.20;;;22.60;92.30;;;;;;20482543;28;20389;-54
2022/08/23 15:52:17;;;;;;;1.98;1.77;;;22.20;92.20;;;;;;20481582;29;20039;-51
2022/08/23 16:02:19;;;;;;;3.97;1.70;;;22.10;92.70;;;;;;20463705;29;20134;-62
2022/08/23 16:12:22;;;;;;;2.70;1.52;;;22.30;92.20;;;;;;20465540;28;20043;-51
2022/08/23 16:22:25;;;;;;;4.90;2.28;;;22.10;91.90;;;;;;20480189;29;20454;-64
2022/08/23 16:32:27;;;;;;;2.13;1.65;;;20.50;94.10;;;;;;20479341;29;20035;-53
2022/08/23 16:42:31;;;;;;;2.97;2.13;;;19.20;96.50;;;;;;20495036;29;20043;-59
2022/08/23 16:52:34;;;;;;;4.10;2.33;;;18.10;98.70;;;;;;20477800;29;20578;-61
2022/08/23 17:02:38;;;;;;;6.65;2.60;;;17.50;99.90;;;;;;20478339;29;20560;-61
2022/08/23 17:12:44;;;;;;;8.73;2.95;;;17.00;99.90;;;;;;20477665;29;20078;-49
2022/08/23 17:22:48;;;;;;;6.03;3.08;;;16.60;99.90;;;;;;20493306;29;20100;-52
2022/08/23 17:32:51;;;;;;;4.80;2.80;;;16.30;99.90;;;;;;20477155;29;20039;-57
2022/08/23 17:42:56;;;;;;;9.80;4.13;;;15.90;99.90;;;;;;20476511;29;20038;-60
2022/08/23 17:52:58;;;;;;;5.00;3.72;;;15.50;99.90;;;;;;20491542;29;20087;-53
2022/08/23 18:03:01;;;;;;;5.00;3.80;;;15.40;99.90;;;;;;20476428;28;20495;-52
2022/08/23 18:13:04;;;;;;;4.28;3.40;;;15.20;99.90;;;;;;20472386;29;20180;-52
2022/08/23 18:23:07;;;;;;;5.45;4.00;;;15.20;99.90;;;;;;20488651;29;20044;-51
2022/08/23 18:33:11;;;;;;;7.55;3.60;;;15.00;99.90;;;;;;20488166;29;20043;-51
2022/08/23 18:43:18;;;;;;;7.07;4.35;;;14.80;99.90;;;;;;20487137;29;20047;-61
2022/08/23 18:53:21;;;;;;;6.32;4.32;;;14.50;99.90;;;;;;20501161;28;20035;-50
2022/08/23 19:03:23;;;;;;;7.10;4.20;;;14.40;99.90;;;;;;20483336;28;20512;-49
2022/08/23 19:13:26;;;;;;;6.60;4.45;;;14.40;99.90;;;;;;20485170;29;20357;-50
2022/08/23 19:23:28;;;;;;;6.32;4.80;;;14.30;99.90;;;;;;20482914;29;20083;-52
2022/08/23 19:33:31;;;;;;;8.32;6.15;;;14.20;99.90;;;;;;20482675;28;20047;-60
2022/08/23 19:43:34;;;;;;;8.30;6.05;;;14.10;99.90;;;;;;20482877;29;20090;-61
2022/08/23 19:53:38;;;;;;;7.90;4.60;;;14.00;99.90;;;;;;20481864;29;20031;-60
2022/08/23 20:03:40;;;;;;;6.63;4.95;;;13.90;99.90;;;;;;20463400;28;20039;-60
2022/08/23 20:13:43;;;;;;;7.47;4.78;;;13.90;99.90;;;;;;20480526;28;20047;-63
2022/08/23 20:24:02;;;;;;;6.18;4.55;;;13.80;99.90;;;;;;20480150;29;20070;-60
2022/08/23 20:34:07;;;;;;;5.00;4.45;;;13.70;99.90;;;;;;20495350;28;20075;-59
2022/08/23 20:44:11;;;;;;;7.32;5.20;;;13.50;99.90;;;;;;20477865;29;20039;-60
2022/08/23 20:54:14;;;;;;;7.80;4.93;;;13.40;99.90;;;;;;20477592;29;20059;-61
2022/08/23 21:04:17;;;;;;;8.40;5.30;;;13.40;99.90;;;;;;20472158;29;20118;-60
2022/08/23 21:14:20;;;;;;;6.78;5.40;;;13.20;99.90;;;;;;20457721;28;20048;-60
2022/08/23 21:24:23;;;;;;;11.05;5.53;;;13.10;99.90;;;;;;20478161;29;20039;-59
2022/08/23 21:34:26;;;;;;;8.27;5.60;;;13.00;99.90;;;;;;20458051;29;21493;-64
2022/08/23 21:44:29;;;;;;;9.32;6.65;;;12.90;99.90;;;;;;20485210;28;20028;-65
2022/08/23 21:54:31;;;;;;;9.43;6.35;;;12.70;99.90;;;;;;20469954;28;20048;-65
2022/08/23 22:04:34;;;;;;;8.77;6.95;;;12.80;99.90;;;;;;20486652;29;20046;-61
2022/08/23 22:14:36;;;;;;;9.27;5.70;;;12.80;99.90;;;;;;20505379;29;20118;-61
2022/08/23 22:24:40;;;;;;;9.05;5.57;;;12.80;99.90;;;;;;20489078;29;20468;-59
2022/08/23 22:34:42;;;;;;;7.88;5.10;;;12.70;99.90;;;;;;20488407;29;20031;-58
2022/08/23 22:44:46;;;;;;;4.65;3.92;;;12.60;99.90;;;;;;20503245;29;20043;-62
2022/08/23 22:54:51;;;;;;;9.25;5.00;;;12.60;99.90;;;;;;20453597;28;20443;-62
2022/08/23 23:04:53;;;;;;;8.23;4.30;;;12.50;99.90;;;;;;20485191;29;20039;-63
2022/08/23 23:14:56;;;;;;;6.78;4.22;;;12.50;99.90;;;;;;20469415;28;20051;-61
2022/08/23 23:25:01;;;;;;;6.65;4.07;;;12.40;99.90;;;;;;20468818;29;20106;-60
2022/08/23 23:35:05;;;;;;;5.50;4.00;;;12.30;99.90;;;;;;20499726;29;20075;-59
2022/08/23 23:45:10;;;;;;;7.40;5.97;;;12.20;99.90;;;;;;20500236;28;20098;-61
2022/08/23 23:55:15;;;;;;;7.00;5.38;;;12.00;99.90;;;;;;20498208;29;20493;-62
